Time;durP1;ratioP1;P1;durP2;ratioP2;P2;SDS_P1;SDS_P2;PMS_P1;PMS_P2;Temp;Humidity;BMP_temperature;BMP_pressure;BME280_temperature;BME280_humidity;BME280_pressure;Samples;Min_cycle;Max_cycle;Signal;HPM_P1;HPM_P2
2022/07/27 00:00:20;;;;;;;13.20;9.30;;;;;;;15.83;74.05;98308.44;5090241;28;20024;-73
2022/07/27 00:02:45;;;;;;;13.60;8.63;;;;;;;15.79;73.77;98313.81;5089319;28;20069;-73
2022/07/27 00:05:11;;;;;;;12.02;8.88;;;;;;;15.79;73.63;98313.81;5089611;28;20077;-72
2022/07/27 00:07:36;;;;;;;10.88;8.38;;;;;;;15.79;73.82;98311.06;5089566;28;20046;-73
2022/07/27 00:10:03;;;;;;;14.27;9.77;;;;;;;15.80;73.55;98306.31;5090163;28;20012;-72
2022/07/27 00:12:29;;;;;;;15.23;9.82;;;;;;;15.77;74.00;98308.63;5089755;28;20020;-72
2022/07/27 00:14:57;;;;;;;12.32;8.38;;;;;;;15.76;73.94;98307.00;5089933;28;20031;-73
2022/07/27 00:17:23;;;;;;;11.57;8.10;;;;;;;15.72;74.26;98300.50;5090016;28;20039;-72
2022/07/27 00:19:49;;;;;;;12.63;8.65;;;;;;;15.69;74.14;98308.69;5090022;28;20058;-73
2022/07/27 00:22:14;;;;;;;10.30;7.55;;;;;;;15.65;75.00;98307.72;5089087;28;20135;-73
2022/07/27 00:24:40;;;;;;;12.98;7.95;;;;;;;15.61;74.51;98322.22;5089761;28;20388;-73
2022/07/27 00:27:07;;;;;;;11.02;7.47;;;;;;;15.60;75.48;98319.78;5089837;28;20065;-72
2022/07/27 00:29:32;;;;;;;13.20;7.68;;;;;;;15.57;74.34;98326.78;5071678;28;20073;-73
2022/07/27 00:31:58;;;;;;;10.65;7.95;;;;;;;15.56;74.57;98316.06;5089174;28;20510;-73
2022/07/27 00:34:23;;;;;;;9.23;7.22;;;;;;;15.55;74.51;98329.06;5070885;28;20381;-72
2022/07/27 00:36:49;;;;;;;14.10;8.23;;;;;;;15.52;74.64;98335.25;5089276;28;20020;-73
2022/07/27 00:39:14;;;;;;;11.38;8.07;;;;;;;15.51;74.36;98332.84;5071614;28;20028;-73
2022/07/27 00:41:39;;;;;;;10.65;8.07;;;;;;;15.45;74.67;98330.25;5089551;28;20035;-73
2022/07/27 00:44:05;;;;;;;13.57;8.50;;;;;;;15.41;75.14;98329.28;5089610;28;20388;-72
2022/07/27 00:46:32;;;;;;;11.63;8.27;;;;;;;15.38;74.89;98334.69;5089255;28;20047;-72
2022/07/27 00:48:58;;;;;;;10.93;8.10;;;;;;;15.34;74.65;98342.81;5089568;28;20061;-72
2022/07/27 00:51:24;;;;;;;12.77;7.55;;;;;;;15.35;74.61;98346.41;5089481;28;20028;-72
2022/07/27 00:53:51;;;;;;;9.00;6.82;;;;;;;15.33;74.47;98347.53;5089744;28;20042;-72
2022/07/27 00:56:17;;;;;;;10.65;7.15;;;;;;;15.31;74.60;98347.06;5089184;28;20020;-72
2022/07/27 00:58:46;;;;;;;11.80;7.03;;;;;;;15.32;74.76;98348.69;5089491;28;20042;-72
2022/07/27 01:01:11;;;;;;;9.68;6.97;;;;;;;15.31;74.61;98344.28;5087446;28;20253;-73
2022/07/27 01:03:37;;;;;;;8.20;6.30;;;;;;;15.33;75.03;98341.19;5090145;28;20472;-73
2022/07/27 01:06:03;;;;;;;13.57;7.45;;;;;;;15.33;75.47;98342.00;5089434;28;20024;-73
2022/07/27 01:08:28;;;;;;;10.07;6.18;;;;;;;15.33;74.66;98341.19;5089426;28;20028;-72
2022/07/27 01:10:55;;;;;;;8.98;6.25;;;;;;;15.35;74.82;98338.09;5089748;28;20477;-73
2022/07/27 01:13:22;;;;;;;9.75;6.68;;;;;;;15.35;75.00;98338.09;5089322;28;20515;-73
2022/07/27 01:15:48;;;;;;;9.85;6.75;;;;;;;15.36;75.13;98335.00;5089265;28;20028;-72
2022/07/27 01:18:31;;;;;;;11.13;6.40;;;;;;;15.38;75.15;98340.22;5089438;28;20073;-72
2022/07/27 01:20:58;;;;;;;11.77;6.72;;;;;;;15.36;75.23;98348.03;5089308;28;20695;-73
2022/07/27 01:23:24;;;;;;;8.98;6.65;;;;;;;15.36;75.55;98348.03;5089461;28;20028;-73
2022/07/27 01:25:50;;;;;;;9.95;6.60;;;;;;;15.36;75.31;98351.56;5089395;28;20357;-72
2022/07/27 01:28:15;;;;;;;9.25;6.22;;;;;;;15.37;75.34;98349.66;5089340;28;20024;-72
2022/07/27 01:30:41;;;;;;;8.38;5.65;;;;;;;15.39;75.82;98356.44;5090249;28;20035;-73
2022/07/27 01:33:08;;;;;;;10.98;6.57;;;;;;;15.37;75.42;98355.97;5092939;28;20488;-73
2022/07/27 01:35:35;;;;;;;8.77;6.38;;;;;;;15.37;75.55;98358.72;5092765;28;20492;-73
2022/07/27 01:38:01;;;;;;;11.27;6.68;;;;;;;15.35;75.73;98349.97;5092910;28;20064;-74
2022/07/27 01:40:26;;;;;;;10.23;6.43;;;;;;;15.33;75.62;98346.72;5092372;28;20168;-72
2022/07/27 01:42:52;;;;;;;14.45;7.30;;;;;;;15.31;75.32;98347.06;5092640;28;20450;-72
2022/07/27 01:45:18;;;;;;;9.20;6.43;;;;;;;15.29;76.04;98354.88;5093268;28;20151;-72
2022/07/27 01:47:43;;;;;;;8.82;6.57;;;;;;;15.26;76.20;98350.00;5092822;28;20102;-72
2022/07/27 01:50:09;;;;;;;9.57;6.53;;;;;;;15.26;75.70;98346.44;5092517;28;20384;-72
2022/07/27 01:52:34;;;;;;;10.50;6.55;;;;;;;15.26;75.51;98351.97;5093150;28;20070;-73
2022/07/27 01:55:00;;;;;;;12.75;6.85;;;;;;;15.24;75.43;98349.50;5093035;28;20024;-72
2022/07/27 01:57:25;;;;;;;13.93;6.70;;;;;;;15.22;75.93;98351.78;5092611;28;20454;-72
2022/07/27 01:59:53;;;;;;;12.63;6.78;;;;;;;15.20;76.56;98350.50;5092633;28;20085;-72
2022/07/27 02:02:19;;;;;;;10.10;6.40;;;;;;;15.18;76.07;98354.41;5074457;28;20031;-72
2022/07/27 02:04:44;;;;;;;10.60;6.68;;;;;;;15.17;76.21;98358.31;5092842;28;20437;-73
2022/07/27 02:07:10;;;;;;;9.15;7.35;;;;;;;15.15;76.38;98351.47;5092244;28;20028;-73
2022/07/27 02:09:35;;;;;;;15.63;6.90;;;;;;;15.15;76.34;98357.00;5092637;28;20024;-72
2022/07/27 02:14:45;;;;;;;17.85;8.60;;;;;;;15.08;77.17;98368.56;5092862;28;20047;-73
2022/07/27 02:17:10;;;;;;;12.80;9.82;;;;;;;15.06;76.59;98376.38;5092572;28;20452;-73
2022/07/27 02:19:36;;;;;;;14.30;9.13;;;;;;;15.01;76.71;98371.03;5092867;28;20024;-73
2022/07/27 02:22:01;;;;;;;14.38;9.43;;;;;;;15.00;77.82;98374.91;5092213;28;20047;-73
2022/07/27 02:24:26;;;;;;;17.67;9.88;;;;;;;14.96;77.03;98372.00;5092851;28;20020;-72
2022/07/27 02:26:52;;;;;;;15.35;9.68;;;;;;;14.95;77.23;98380.59;5092281;28;20120;-74
2022/07/27 02:29:19;;;;;;;11.50;8.68;;;;;;;14.94;77.22;98382.56;5092450;28;20028;-76
2022/07/27 02:31:45;;;;;;;15.90;10.35;;;;;;;14.92;78.10;98392.31;5092285;28;20035;-75
2022/07/27 02:34:10;;;;;;;13.45;9.65;;;;;;;14.88;78.25;98387.44;5092694;28;20032;-74
2022/07/27 02:36:36;;;;;;;16.17;10.65;;;;;;;14.80;77.54;98388.28;5092328;28;20526;-72
2022/07/27 02:39:03;;;;;;;15.35;10.43;;;;;;;14.77;77.44;98385.34;5092191;28;20059;-74
2022/07/27 02:41:29;;;;;;;15.95;9.57;;;;;;;14.73;77.46;98382.44;5091527;28;20028;-74
2022/07/27 02:43:54;;;;;;;15.05;9.43;;;;;;;14.68;77.70;98380.59;5073696;28;20036;-74
2022/07/27 02:46:19;;;;;;;13.32;8.70;;;;;;;14.67;78.00;98378.19;5092288;28;20093;-74
2022/07/27 02:48:45;;;;;;;12.60;9.32;;;;;;;14.66;77.56;98376.56;5091751;28;20036;-73
2022/07/27 02:51:13;;;;;;;13.52;9.30;;;;;;;14.66;77.45;98376.56;5091980;28;20028;-73
2022/07/27 02:53:39;;;;;;;12.18;8.60;;;;;;;14.66;77.80;98385.66;5092671;28;20030;-74
2022/07/27 02:56:05;;;;;;;13.20;9.73;;;;;;;14.62;77.30;98381.94;5091633;28;20103;-74
2022/07/27 02:58:30;;;;;;;12.35;8.75;;;;;;;14.59;78.42;98391.66;5090906;28;20027;-73
2022/07/27 03:00:56;;;;;;;13.57;8.90;;;;;;;14.56;77.86;98383.22;5091577;28;20020;-74
2022/07/27 03:03:21;;;;;;;12.10;9.15;;;;;;;14.53;77.69;98381.09;5092394;28;20094;-74
2022/07/27 03:05:47;;;;;;;15.68;10.23;;;;;;;14.53;78.46;98392.16;5091865;28;20457;-74
2022/07/27 03:08:13;;;;;;;15.05;10.23;;;;;;;14.50;78.11;98398.31;5092579;28;20047;-74
2022/07/27 03:10:38;;;;;;;14.20;10.60;;;;;;;14.48;77.99;98392.31;5092796;28;20608;-74
2022/07/27 03:13:03;;;;;;;15.05;10.70;;;;;;;14.46;78.13;98386.28;5092316;28;20121;-74
2022/07/27 03:15:31;;;;;;;13.25;9.63;;;;;;;14.44;78.06;98397.66;5090798;28;20032;-74
2022/07/27 03:17:57;;;;;;;15.73;9.68;;;;;;;14.46;77.69;98394.56;5090440;28;20028;-73
2022/07/27 03:20:23;;;;;;;13.88;10.05;;;;;;;14.49;77.58;98391.16;5090623;28;20407;-74
2022/07/27 03:22:48;;;;;;;15.13;9.68;;;;;;;14.50;77.91;98390.03;5090382;28;20036;-73
2022/07/27 03:25:14;;;;;;;16.30;10.10;;;;;;;14.48;77.86;98393.09;5090672;28;20508;-73
2022/07/27 03:27:39;;;;;;;14.70;8.88;;;;;;;14.48;78.19;98398.63;5087268;28;20016;-72
2022/07/27 03:30:06;;;;;;;12.88;8.52;;;;;;;14.47;78.00;98405.28;5091219;28;20051;-74
2022/07/27 03:32:31;;;;;;;11.35;9.02;;;;;;;14.47;77.74;98399.75;5091553;28;20051;-73
2022/07/27 03:34:57;;;;;;;11.15;8.48;;;;;;;14.47;78.17;98396.19;5091657;28;20135;-73
2022/07/27 03:37:22;;;;;;;11.75;8.02;;;;;;;14.49;77.45;98407.72;5072860;28;20065;-73
2022/07/27 03:39:47;;;;;;;11.27;7.78;;;;;;;14.48;77.72;98395.88;5092005;28;20016;-73
2022/07/27 03:42:13;;;;;;;13.23;8.18;;;;;;;14.50;77.81;98401.88;5091960;28;20028;-73
2022/07/27 03:44:38;;;;;;;11.05;7.80;;;;;;;14.50;77.57;98401.06;5091827;28;20099;-74
2022/07/27 03:47:04;;;;;;;13.88;8.20;;;;;;;14.50;77.75;98399.13;5091698;28;20028;-74
2022/07/27 03:49:30;;;;;;;10.50;7.28;;;;;;;14.52;78.40;98405.13;5091545;28;20028;-73
2022/07/27 03:51:56;;;;;;;13.07;8.02;;;;;;;14.53;77.76;98409.50;5091682;28;20111;-74
2022/07/27 03:54:21;;;;;;;14.18;8.48;;;;;;;14.55;78.05;98411.97;5091577;28;20715;-73
2022/07/27 03:56:46;;;;;;;13.35;8.07;;;;;;;14.56;78.09;98410.81;5091641;28;20042;-73
2022/07/27 03:59:12;;;;;;;12.32;8.00;;;;;;;14.55;78.03;98406.44;5090910;28;20396;-73
2022/07/27 04:01:37;;;;;;;11.98;7.57;;;;;;;14.60;77.78;98414.56;5090649;28;20028;-73
2022/07/27 04:04:03;;;;;;;12.30;7.90;;;;;;;14.62;77.80;98406.78;5091948;28;20473;-73
2022/07/27 04:06:29;;;;;;;11.18;7.60;;;;;;;14.63;78.14;98410.31;5091102;28;20024;-73
2022/07/27 04:08:54;;;;;;;10.13;7.07;;;;;;;14.65;78.38;98411.63;5091161;28;20024;-74
2022/07/27 04:11:19;;;;;;;12.20;7.68;;;;;;;14.68;78.07;98407.41;5091251;28;20437;-73
2022/07/27 04:13:48;;;;;;;11.02;7.90;;;;;;;14.72;78.37;98403.69;5091199;28;20020;-74
2022/07/27 04:16:13;;;;;;;8.48;6.32;;;;;;;14.82;78.38;98401.75;5090649;28;20122;-73
2022/07/27 04:18:39;;;;;;;10.55;7.10;;;;;;;14.91;78.21;98408.06;5090980;28;20484;-73
2022/07/27 04:21:05;;;;;;;8.82;6.72;;;;;;;15.00;78.44;98411.66;5090752;28;20040;-73
2022/07/27 04:23:31;;;;;;;7.50;6.00;;;;;;;15.11;78.01;98414.03;5091153;28;20032;-74
2022/07/27 04:25:57;;;;;;;6.68;5.30;;;;;;;15.25;78.12;98403.63;5090667;28;20024;-74
2022/07/27 04:28:22;;;;;;;6.95;5.72;;;;;;;15.33;78.00;98410.25;5091066;28;20470;-73
2022/07/27 04:30:48;;;;;;;6.57;5.55;;;;;;;15.45;77.62;98404.88;5090569;28;20027;-73
2022/07/27 04:33:14;;;;;;;7.78;5.90;;;;;;;15.59;77.83;98406.63;5073331;28;20036;-73
2022/07/27 04:35:39;;;;;;;7.50;5.72;;;;;;;15.66;77.94;98409.69;5091053;28;20028;-73
2022/07/27 04:38:05;;;;;;;6.55;5.35;;;;;;;15.74;77.92;98403.28;5090926;28;20483;-74
2022/07/27 04:40:32;;;;;;;7.63;5.40;;;;;;;15.82;77.92;98403.59;5090749;28;20036;-73
2022/07/27 04:42:58;;;;;;;7.10;5.20;;;;;;;15.90;77.35;98413.84;5090722;28;20028;-74
2022/07/27 04:45:23;;;;;;;7.53;4.68;;;;;;;16.00;77.60;98413.47;5090827;28;20028;-74
2022/07/27 04:47:49;;;;;;;6.10;4.85;;;;;;;16.07;77.02;98405.47;5090612;28;20024;-74
2022/07/27 04:50:15;;;;;;;6.32;5.07;;;;;;;16.17;77.08;98412.56;5090626;28;20032;-74
2022/07/27 04:52:40;;;;;;;7.90;5.38;;;;;;;16.23;77.54;98418.69;5090613;28;20028;-74
2022/07/27 04:55:06;;;;;;;9.98;5.05;;;;;;;16.26;77.21;98414.47;5090823;28;20016;-74
2022/07/27 04:57:32;;;;;;;9.13;5.90;;;;;;;16.30;76.94;98421.75;5090482;28;20605;-74
2022/07/27 04:59:58;;;;;;;6.50;4.63;;;;;;;16.36;77.41;98417.63;5089448;28;20089;-74
2022/07/27 05:02:25;;;;;;;8.13;5.28;;;;;;;16.36;76.53;98420.41;5089964;28;20031;-74
2022/07/27 05:04:52;;;;;;;6.72;4.97;;;;;;;16.37;76.68;98413.72;5090762;28;20028;-74
2022/07/27 05:07:17;;;;;;;7.65;4.97;;;;;;;16.39;76.14;98404.28;5094888;28;20382;-74
2022/07/27 05:09:42;;;;;;;7.03;5.15;;;;;;;16.48;76.41;98405.81;5094491;28;20036;-74
2022/07/27 05:12:08;;;;;;;7.28;4.90;;;;;;;16.58;76.11;98421.22;5076279;28;20020;-74
2022/07/27 05:14:34;;;;;;;6.43;4.82;;;;;;;16.68;76.13;98414.50;5094453;28;20024;-74
2022/07/27 05:17:00;;;;;;;6.45;5.03;;;;;;;16.74;76.30;98417.84;5094370;28;20027;-74
2022/07/27 05:19:25;;;;;;;7.18;5.03;;;;;;;16.76;75.72;98430.19;5094546;28;20024;-74
2022/07/27 05:21:51;;;;;;;9.52;5.22;;;;;;;16.82;75.92;98430.81;5094092;28;20040;-74
2022/07/27 05:24:16;;;;;;;6.45;4.90;;;;;;;16.88;75.80;98428.66;5094512;28;20024;-74
2022/07/27 05:26:42;;;;;;;5.25;4.75;;;;;;;16.93;75.88;98432.00;5094256;28;20380;-74
2022/07/27 05:29:07;;;;;;;6.78;4.80;;;;;;;16.95;75.13;98428.91;5094304;28;20024;-74
2022/07/27 05:31:32;;;;;;;6.13;4.93;;;;;;;17.02;75.37;98431.97;5093922;28;20028;-74
2022/07/27 05:33:58;;;;;;;5.35;4.78;;;;;;;17.07;75.54;98448.41;5094374;28;20559;-75
2022/07/27 05:36:23;;;;;;;7.97;4.93;;;;;;;17.13;75.40;98443.44;5094586;28;20077;-75
2022/07/27 05:38:49;;;;;;;7.55;5.43;;;;;;;17.18;75.23;98453.50;5094368;28;20024;-75
2022/07/27 05:41:14;;;;;;;7.05;5.38;;;;;;;17.20;74.91;98457.56;5094022;28;20028;-75
2022/07/27 05:43:39;;;;;;;6.30;5.30;;;;;;;17.23;74.85;98454.13;5094661;28;20081;-74
2022/07/27 05:46:05;;;;;;;7.72;5.72;;;;;;;17.30;74.90;98448.00;5094296;28;20069;-75
2022/07/27 05:48:30;;;;;;;7.55;5.05;;;;;;;17.37;74.77;98445.50;5093970;28;20021;-74
2022/07/27 05:50:56;;;;;;;7.60;4.95;;;;;;;17.43;74.80;98448.84;5093632;28;20031;-75
2022/07/27 05:53:21;;;;;;;8.50;5.15;;;;;;;17.52;74.45;98455.13;5094082;28;20068;-74
2022/07/27 05:55:47;;;;;;;6.13;5.10;;;;;;;17.61;74.16;98454.22;5075949;28;20465;-74
2022/07/27 05:58:12;;;;;;;6.28;4.93;;;;;;;17.67;74.53;98459.19;5071859;28;20028;-74
2022/07/27 06:00:37;;;;;;;6.55;5.85;;;;;;;17.71;74.37;98464.88;5093752;28;20099;-74
2022/07/27 06:03:03;;;;;;;8.00;5.20;;;;;;;17.69;74.08;98472.72;5093610;28;20034;-74
2022/07/27 06:05:28;;;;;;;8.05;5.22;;;;;;;17.71;73.91;98462.91;5093761;28;20520;-75
2022/07/27 06:08:02;;;;;;;8.00;6.00;;;;;;;17.72;73.84;98466.50;5094001;28;20028;-74
2022/07/27 06:10:32;;;;;;;8.50;6.97;;;;;;;17.73;73.69;98468.09;5093649;28;20024;-74
2022/07/27 06:12:58;;;;;;;8.88;6.63;;;;;;;17.78;73.73;98462.31;5075711;28;20036;-75
2022/07/27 06:15:24;;;;;;;8.73;6.60;;;;;;;17.84;73.81;98462.94;5093947;28;20038;-74
2022/07/27 06:17:52;;;;;;;9.98;6.80;;;;;;;17.88;73.43;98466.63;5093525;28;20115;-74
2022/07/27 06:20:19;;;;;;;7.88;6.90;;;;;;;17.94;73.56;98468.00;5093847;28;20051;-75
2022/07/27 06:22:48;;;;;;;9.38;7.30;;;;;;;17.97;72.95;98463.75;5093375;28;20185;-74
2022/07/27 06:25:15;;;;;;;10.75;7.75;;;;;;;17.99;73.05;98467.81;5094107;28;20111;-74
2022/07/27 06:27:40;;;;;;;10.82;7.60;;;;;;;18.09;72.98;98465.75;5093474;28;20409;-74
2022/07/27 06:30:07;;;;;;;10.15;7.63;;;;;;;18.16;72.90;98468.75;5093356;28;20086;-74
2022/07/27 06:32:32;;;;;;;9.70;7.55;;;;;;;18.26;72.83;98476.63;5093141;28;20589;-74
2022/07/27 06:34:59;;;;;;;9.45;8.32;;;;;;;18.30;72.52;98476.72;5093622;28;20027;-75
2022/07/27 06:37:26;;;;;;;8.95;8.05;;;;;;;18.28;72.42;98485.41;5093366;28;20028;-74
2022/07/27 06:39:52;;;;;;;9.07;8.15;;;;;;;18.26;72.19;98484.97;5075317;28;20107;-74
2022/07/27 06:42:17;;;;;;;11.38;8.02;;;;;;;18.30;72.31;98479.50;5092856;28;20111;-75
2022/07/27 06:44:42;;;;;;;7.95;7.25;;;;;;;18.35;72.13;98481.22;5093166;28;20462;-75
2022/07/27 06:47:08;;;;;;;9.35;7.88;;;;;;;18.43;72.08;98488.63;5093211;28;20023;-74
2022/07/27 06:49:33;;;;;;;10.80;7.78;;;;;;;18.44;71.97;98479.97;5093037;28;20027;-74
2022/07/27 06:51:59;;;;;;;9.23;7.55;;;;;;;18.51;71.89;98489.69;5092977;28;20103;-75
2022/07/27 06:54:24;;;;;;;10.90;7.70;;;;;;;18.50;71.65;98486.09;5075114;28;20016;-75
2022/07/27 06:56:50;;;;;;;8.68;7.72;;;;;;;18.44;71.51;98485.53;5093186;28;20042;-75
2022/07/27 06:59:15;;;;;;;10.80;7.32;;;;;;;18.37;71.34;98485.28;5075182;28;20414;-75
2022/07/27 07:01:42;;;;;;;11.02;7.30;;;;;;;18.32;71.46;98490.28;5092512;28;20032;-75
2022/07/27 07:04:08;;;;;;;9.45;7.60;;;;;;;18.35;71.36;98486.78;5092871;28;20021;-75
2022/07/27 07:06:33;;;;;;;11.05;8.23;;;;;;;18.29;71.43;98492.59;5074829;28;20089;-74
2022/07/27 07:08:59;;;;;;;11.18;8.02;;;;;;;18.26;71.36;98498.00;5092859;28;20035;-75
2022/07/27 07:11:24;;;;;;;10.23;8.10;;;;;;;18.26;71.46;98495.22;5092443;28;20024;-75
2022/07/27 07:13:50;;;;;;;10.35;7.90;;;;;;;18.24;71.31;98492.81;5092951;28;20051;-74
2022/07/27 07:16:16;;;;;;;10.18;9.18;;;;;;;18.22;71.31;98486.81;5092706;28;20081;-75
2022/07/27 07:18:41;;;;;;;10.57;9.40;;;;;;;18.23;71.32;98482.88;5092573;28;20024;-75
2022/07/27 07:21:07;;;;;;;10.30;8.90;;;;;;;18.32;71.25;98491.06;5092185;28;20126;-74
2022/07/27 07:23:33;;;;;;;10.57;9.45;;;;;;;18.40;71.36;98494.88;5092418;28;20024;-75
2022/07/27 07:25:58;;;;;;;10.20;9.18;;;;;;;18.42;71.09;98482.28;5092475;28;20027;-75
2022/07/27 07:28:24;;;;;;;10.98;9.82;;;;;;;18.47;70.83;98489.56;5090183;28;20494;-74
2022/07/27 07:30:49;;;;;;;10.95;9.07;;;;;;;18.50;70.91;98496.41;5088347;28;20485;-74
2022/07/27 07:33:15;;;;;;;11.18;10.10;;;;;;;18.54;70.65;98505.66;5089775;28;20039;-73
2022/07/27 07:35:41;;;;;;;10.48;9.35;;;;;;;18.62;70.53;98495.56;5089296;28;20024;-73
2022/07/27 07:38:06;;;;;;;10.35;9.35;;;;;;;18.67;70.60;98492.56;5090451;28;20020;-74
2022/07/27 07:40:32;;;;;;;10.65;9.23;;;;;;;18.77;70.65;98494.03;5086788;28;20039;-74
2022/07/27 07:43:00;;;;;;;10.40;8.55;;;;;;;18.86;70.45;98492.75;5090231;28;20400;-74
2022/07/27 07:45:27;;;;;;;10.32;8.57;;;;;;;18.96;70.42;98497.03;5090649;28;20028;-74
2022/07/27 07:47:53;;;;;;;11.00;8.10;;;;;;;19.06;70.37;98506.84;5090729;28;20036;-74
2022/07/27 07:50:20;;;;;;;8.65;7.75;;;;;;;19.15;70.09;98507.53;5090561;28;20476;-74
2022/07/27 07:52:50;;;;;;;9.50;7.57;;;;;;;19.21;69.88;98510.84;5089498;28;20036;-75
2022/07/27 07:55:19;;;;;;;10.70;7.90;;;;;;;19.30;69.88;98511.53;5089726;28;20476;-74
2022/07/27 07:57:44;;;;;;;8.67;7.87;;;;;;;19.41;69.82;98511.00;5090239;28;20035;-74
2022/07/27 08:00:10;;;;;;;8.60;7.80;;;;;;;19.43;69.44;98503.09;5090424;28;20072;-74
2022/07/27 08:02:50;;;;;;;9.07;7.65;;;;;;;19.49;69.48;98508.09;5089761;28;20032;-75
2022/07/27 08:05:15;;;;;;;8.75;7.38;;;;;;;19.56;69.06;98507.47;5090257;28;20724;-74
2022/07/27 08:07:44;;;;;;;8.73;7.65;;;;;;;19.64;69.13;98506.50;5089964;28;20024;-72
2022/07/27 08:10:11;;;;;;;8.50;7.70;;;;;;;19.74;69.15;98505.16;5085754;28;20142;-72
2022/07/27 08:12:40;;;;;;;9.73;8.30;;;;;;;19.85;69.06;98505.44;5089293;28;20028;-72
2022/07/27 08:15:07;;;;;;;8.95;8.15;;;;;;;19.97;68.76;98503.78;5090084;28;20032;-72
2022/07/27 08:17:32;;;;;;;8.95;8.02;;;;;;;20.07;68.61;98495.69;5071890;28;20032;-72
2022/07/27 08:19:57;;;;;;;8.57;7.65;;;;;;;20.13;68.58;98499.03;5089915;28;20027;-71
2022/07/27 08:22:23;;;;;;;10.40;8.45;;;;;;;20.23;68.43;98497.69;5089689;28;20047;-71
2022/07/27 08:24:49;;;;;;;10.55;9.45;;;;;;;20.24;68.05;98496.50;5089430;28;20064;-74
2022/07/27 08:27:15;;;;;;;11.02;9.30;;;;;;;20.26;67.94;98501.72;5088451;28;20059;-74
2022/07/27 08:29:40;;;;;;;10.48;9.20;;;;;;;20.25;68.02;98502.88;5089987;28;20035;-74
2022/07/27 08:32:06;;;;;;;12.95;11.55;;;;;;;20.22;67.56;98505.22;5089860;28;20063;-73
2022/07/27 08:34:31;;;;;;;13.82;10.52;;;;;;;20.17;67.78;98497.16;5087269;28;20027;-73
2022/07/27 08:36:57;;;;;;;12.88;11.50;;;;;;;20.14;67.58;98497.03;5089682;28;20028;-73
2022/07/27 08:39:23;;;;;;;11.23;10.10;;;;;;;20.06;67.26;98507.19;5089540;28;20047;-73
2022/07/27 08:41:54;;;;;;;11.82;10.63;;;;;;;20.00;67.38;98516.97;5087419;28;20114;-72
2022/07/27 08:44:23;;;;;;;11.63;10.35;;;;;;;20.01;67.78;98511.03;5086975;28;20031;-73
2022/07/27 08:46:50;;;;;;;10.93;9.82;;;;;;;20.12;67.45;98511.34;5089070;28;20110;-72
2022/07/27 08:49:17;;;;;;;10.60;9.45;;;;;;;20.22;67.56;98505.22;5089079;28;20480;-73
2022/07/27 08:51:43;;;;;;;9.88;8.88;;;;;;;20.32;67.31;98503.06;5089148;28;20040;-73
2022/07/27 08:54:09;;;;;;;9.43;8.40;;;;;;;20.43;67.02;98500.53;5089539;28;20024;-72
2022/07/27 08:56:35;;;;;;;10.95;9.70;;;;;;;20.56;67.07;98504.81;5087739;28;20043;-73
2022/07/27 08:59:00;;;;;;;10.48;9.38;;;;;;;20.73;67.01;98502.81;5089292;28;20028;-73
2022/07/27 09:01:26;;;;;;;11.13;9.43;;;;;;;20.88;66.52;98501.97;5089382;28;20109;-72
2022/07/27 09:03:51;;;;;;;12.02;10.75;;;;;;;20.93;66.07;98495.34;5088464;28;20032;-73
2022/07/27 09:06:53;;;;;;;14.75;10.63;;;;;;;21.05;66.25;98497.97;5089640;28;20081;-72
2022/07/27 09:09:20;;;;;;;10.93;9.82;;;;;;;21.17;65.44;98508.19;5089783;28;20480;-73
2022/07/27 09:12:05;;;;;;;11.27;10.10;;;;;;;21.23;65.58;98509.50;5088841;28;20110;-73
2022/07/27 09:14:33;;;;;;;12.70;11.45;;;;;;;21.34;64.92;98500.53;5089372;28;20024;-72
2022/07/27 09:16:58;;;;;;;12.80;11.50;;;;;;;21.39;64.33;98501.06;5087562;28;20023;-71
2022/07/27 09:19:23;;;;;;;12.38;10.80;;;;;;;21.43;64.96;98503.91;5086925;28;20490;-73
2022/07/27 09:21:49;;;;;;;12.38;11.15;;;;;;;21.45;64.54;98501.56;5070691;28;20043;-77
2022/07/27 09:24:15;;;;;;;14.32;12.93;;;;;;;21.44;64.13;98505.53;5080485;28;20032;-71
2022/07/27 09:26:41;;;;;;;12.32;11.02;;;;;;;21.45;64.12;98496.00;5069551;28;20035;-73
2022/07/27 09:29:07;;;;;;;12.75;10.18;;;;;;;21.46;64.11;98494.00;5087283;28;20028;-72
2022/07/27 09:31:40;;;;;;;13.15;9.98;;;;;;;21.40;63.70;98488.72;5086196;28;20036;-72
2022/07/27 09:34:06;;;;;;;11.40;9.50;;;;;;;21.34;63.72;98484.63;5086898;28;20032;-73
2022/07/27 09:36:31;;;;;;;11.38;10.00;;;;;;;21.38;64.11;98490.25;5087117;28;20132;-72
2022/07/27 09:39:05;;;;;;;11.80;9.82;;;;;;;21.47;63.50;98478.88;5067837;28;20024;-74
2022/07/27 09:41:48;;;;;;;11.60;8.95;;;;;;;21.55;63.82;98478.66;5087235;28;20032;-72
2022/07/27 09:44:15;;;;;;;10.68;8.55;;;;;;;21.66;63.84;98473.28;5086639;28;20039;-78
2022/07/27 09:46:42;;;;;;;12.77;11.43;;;;;;;21.90;63.66;98478.91;5087355;28;20032;-75
2022/07/27 09:49:29;;;;;;;13.77;11.82;;;;;;;22.19;63.79;98477.41;5085980;28;20032;-72
2022/07/27 09:51:55;;;;;;;13.80;12.40;;;;;;;22.45;63.22;98464.66;5089204;28;20549;-75
2022/07/27 09:54:21;;;;;;;11.27;10.07;;;;;;;22.64;62.66;98468.50;5091296;28;20028;-74
2022/07/27 09:56:59;;;;;;;10.43;9.30;;;;;;;22.70;62.61;98465.00;5089132;28;20443;-72
2022/07/27 09:59:24;;;;;;;11.57;10.15;;;;;;;22.78;62.34;98470.72;5089243;28;20031;-74
2022/07/27 10:01:50;;;;;;;10.35;8.88;;;;;;;22.78;61.98;98460.31;5088466;28;20487;-72
2022/07/27 10:04:16;;;;;;;13.07;9.43;;;;;;;22.82;61.49;98474.38;5089195;28;20219;-74
2022/07/27 10:06:42;;;;;;;10.93;8.38;;;;;;;22.82;61.58;98471.56;5089409;28;20035;-73
2022/07/27 10:09:07;;;;;;;10.90;8.77;;;;;;;22.81;61.29;98479.13;5090470;28;20027;-73
2022/07/27 10:11:34;;;;;;;12.57;9.32;;;;;;;22.87;61.13;98474.00;5087547;28;20050;-73
2022/07/27 10:13:59;;;;;;;9.30;8.40;;;;;;;22.85;60.62;98471.59;5088718;28;20016;-76
2022/07/27 10:16:27;;;;;;;8.10;7.10;;;;;;;22.77;60.42;98469.09;5087996;28;20023;-73
2022/07/27 10:19:05;;;;;;;8.55;7.65;;;;;;;22.62;59.90;98468.88;5086809;28;20016;-74
2022/07/27 10:21:32;;;;;;;10.70;8.60;;;;;;;22.45;59.67;98475.81;5089858;28;20067;-74
2022/07/27 10:24:04;;;;;;;9.27;7.72;;;;;;;22.38;59.85;98472.88;5091328;28;20053;-73
2022/07/27 10:26:36;;;;;;;10.13;7.80;;;;;;;22.33;59.65;98476.00;5088909;28;20054;-73
2022/07/27 10:29:03;;;;;;;8.57;7.57;;;;;;;22.32;59.52;98480.78;5090579;28;20039;-73
2022/07/27 10:31:40;;;;;;;10.38;8.23;;;;;;;22.34;59.99;98480.41;5070614;28;20024;-74
2022/07/27 10:34:07;;;;;;;8.55;7.57;;;;;;;22.39;59.34;98485.69;5089379;28;20035;-74
2022/07/27 10:36:33;;;;;;;9.30;7.45;;;;;;;22.48;59.26;98482.63;5089201;28;20024;-75
2022/07/27 10:39:02;;;;;;;8.80;7.90;;;;;;;22.54;59.39;98490.34;5090655;28;20031;-74
2022/07/27 10:41:39;;;;;;;9.52;7.72;;;;;;;22.64;59.51;98483.28;5087092;28;20016;-74
2022/07/27 10:44:13;;;;;;;10.23;7.15;;;;;;;22.91;59.64;98488.84;5089726;28;20169;-72
2022/07/27 10:46:59;;;;;;;8.60;7.07;;;;;;;23.15;59.47;98484.75;5087446;28;20088;-73
2022/07/27 10:49:30;;;;;;;6.60;5.68;;;;;;;23.30;58.87;98484.97;5088071;28;20028;-72
2022/07/27 10:51:57;;;;;;;6.10;5.43;;;;;;;23.40;58.24;98475.09;5070055;28;20506;-75
2022/07/27 10:54:38;;;;;;;7.55;5.30;;;;;;;23.44;57.49;98475.94;5088428;28;20107;-74
2022/07/27 10:57:06;;;;;;;6.07;4.30;;;;;;;23.45;56.83;98478.34;5086990;28;20721;-72
2022/07/27 10:59:38;;;;;;;6.78;4.72;;;;;;;23.56;57.36;98484.09;5086914;28;20067;-73
2022/07/27 11:02:05;;;;;;;6.45;4.88;;;;;;;23.68;57.01;98473.78;5088885;28;20089;-74
2022/07/27 11:04:32;;;;;;;6.07;4.90;;;;;;;23.81;56.56;98477.13;5088369;28;20043;-74
2022/07/27 11:07:00;;;;;;;6.45;5.10;;;;;;;23.86;55.86;98471.97;5086696;28;20024;-73
2022/07/27 11:09:35;;;;;;;4.85;4.40;;;;;;;23.90;55.94;98481.22;5088688;28;20032;-74
2022/07/27 11:12:03;;;;;;;7.75;6.15;;;;;;;24.01;55.21;98478.53;5087014;28;20038;-75
2022/07/27 11:14:29;;;;;;;9.52;5.68;;;;;;;24.02;55.11;98474.53;5089267;28;20073;-74
2022/07/27 11:16:56;;;;;;;8.20;6.57;;;;;;;24.02;54.71;98471.75;5085997;28;20024;-73
2022/07/27 11:19:22;;;;;;;6.43;5.82;;;;;;;24.05;53.78;98476.56;5089554;28;20487;-77
2022/07/27 11:21:48;;;;;;;7.97;5.78;;;;;;;24.05;54.06;98470.16;5090234;28;20048;-74
2022/07/27 11:24:18;;;;;;;6.80;5.97;;;;;;;24.06;52.84;98469.78;5090472;28;20053;-74
2022/07/27 11:26:48;;;;;;;11.18;6.35;;;;;;;24.09;51.68;98468.19;5071433;28;20190;-75